sensor_id;sensor_type;location;lat;lon;timestamp;P1;durP1;ratioP1;P2;durP2;ratioP2
32780;SDS011;19136;47.032;15.502;2023-09-19T00:01:46;22.00;;;10.65;;
32780;SDS011;19136;47.032;15.502;2023-09-19T00:04:12;23.88;;;10.25;;
32780;SDS011;19136;47.032;15.502;2023-09-19T00:06:38;20.75;;;10.25;;
32780;SDS011;19136;47.032;15.502;2023-09-19T00:09:03;19.85;;;11.27;;
32780;SDS011;19136;47.032;15.502;2023-09-19T00:11:29;15.85;;;9.18;;
32780;SDS011;19136;47.032;15.502;2023-09-19T00:13:54;19.65;;;10.52;;
32780;SDS011;19136;47.032;15.502;2023-09-19T00:16:20;19.55;;;10.20;;
32780;SDS011;19136;47.032;15.502;2023-09-19T00:18:46;19.25;;;11.00;;
32780;SDS011;19136;47.032;15.502;2023-09-19T00:21:12;20.60;;;10.63;;
32780;SDS011;19136;47.032;15.502;2023-09-19T00:23:38;19.45;;;11.65;;
32780;SDS011;19136;47.032;15.502;2023-09-19T00:26:03;16.25;;;10.45;;
32780;SDS011;19136;47.032;15.502;2023-09-19T00:28:30;24.35;;;12.27;;
32780;SDS011;19136;47.032;15.502;2023-09-19T00:30:57;22.13;;;9.70;;
32780;SDS011;19136;47.032;15.502;2023-09-19T00:33:26;22.55;;;11.15;;
32780;SDS011;19136;47.032;15.502;2023-09-19T00:36:00;19.33;;;9.85;;
32780;SDS011;19136;47.032;15.502;2023-09-19T00:38:53;20.13;;;10.13;;
32780;SDS011;19136;47.032;15.502;2023-09-19T00:41:34;27.98;;;10.25;;
32780;SDS011;19136;47.032;15.502;2023-09-19T00:46:33;22.98;;;9.73;;
32780;SDS011;19136;47.032;15.502;2023-09-19T00:49:03;21.33;;;11.52;;
32780;SDS011;19136;47.032;15.502;2023-09-19T00:51:28;22.67;;;10.15;;
32780;SDS011;19136;47.032;15.502;2023-09-19T00:54:33;26.38;;;10.70;;
32780;SDS011;19136;47.032;15.502;2023-09-19T00:56:59;18.92;;;10.23;;
32780;SDS011;19136;47.032;15.502;2023-09-19T00:59:36;20.55;;;9.55;;
32780;SDS011;19136;47.032;15.502;2023-09-19T01:02:02;19.35;;;9.90;;
32780;SDS011;19136;47.032;15.502;2023-09-19T01:04:31;17.40;;;9.88;;
32780;SDS011;19136;47.032;15.502;2023-09-19T01:06:57;18.95;;;9.57;;
32780;SDS011;19136;47.032;15.502;2023-09-19T01:09:23;23.80;;;10.20;;
32780;SDS011;19136;47.032;15.502;2023-09-19T01:11:50;19.80;;;9.27;;
32780;SDS011;19136;47.032;15.502;2023-09-19T01:14:27;20.35;;;10.85;;
32780;SDS011;19136;47.032;15.502;2023-09-19T01:17:06;16.48;;;9.27;;
32780;SDS011;19136;47.032;15.502;2023-09-19T01:22:53;18.20;;;8.82;;
32780;SDS011;19136;47.032;15.502;2023-09-19T01:33:59;19.60;;;8.00;;
32780;SDS011;19136;47.032;15.502;2023-09-19T01:36:29;17.67;;;9.07;;
32780;SDS011;19136;47.032;15.502;2023-09-19T01:39:04;21.48;;;9.18;;
32780;SDS011;19136;47.032;15.502;2023-09-19T01:44:06;17.20;;;9.55;;
32780;SDS011;19136;47.032;15.502;2023-09-19T01:46:33;18.27;;;9.48;;
32780;SDS011;19136;47.032;15.502;2023-09-19T01:49:05;17.70;;;8.40;;
32780;SDS011;19136;47.032;15.502;2023-09-19T01:51:37;14.98;;;8.40;;
32780;SDS011;19136;47.032;15.502;2023-09-19T01:54:09;16.85;;;8.18;;
32780;SDS011;19136;47.032;15.502;2023-09-19T01:59:04;13.70;;;8.35;;
32780;SDS011;19136;47.032;15.502;2023-09-19T02:01:31;15.70;;;8.07;;
32780;SDS011;19136;47.032;15.502;2023-09-19T02:03:57;21.17;;;7.93;;
32780;SDS011;19136;47.032;15.502;2023-09-19T02:06:23;18.17;;;8.05;;
32780;SDS011;19136;47.032;15.502;2023-09-19T02:08:50;19.55;;;7.65;;
32780;SDS011;19136;47.032;15.502;2023-09-19T02:11:16;17.52;;;7.40;;
32780;SDS011;19136;47.032;15.502;2023-09-19T02:13:41;16.50;;;9.25;;
32780;SDS011;19136;47.032;15.502;2023-09-19T02:16:07;19.77;;;8.30;;
32780;SDS011;19136;47.032;15.502;2023-09-19T02:18:34;20.77;;;8.43;;
32780;SDS011;19136;47.032;15.502;2023-09-19T02:21:00;17.35;;;7.38;;
32780;SDS011;19136;47.032;15.502;2023-09-19T02:23:29;18.58;;;7.93;;
32780;SDS011;19136;47.032;15.502;2023-09-19T02:25:55;13.18;;;7.90;;
32780;SDS011;19136;47.032;15.502;2023-09-19T02:28:23;19.20;;;8.02;;
32780;SDS011;19136;47.032;15.502;2023-09-19T02:30:48;13.57;;;5.60;;
32780;SDS011;19136;47.032;15.502;2023-09-19T02:33:15;17.92;;;7.70;;
32780;SDS011;19136;47.032;15.502;2023-09-19T02:35:45;16.00;;;8.18;;
32780;SDS011;19136;47.032;15.502;2023-09-19T02:38:11;22.23;;;8.18;;
32780;SDS011;19136;47.032;15.502;2023-09-19T02:40:37;8.60;;;5.55;;
32780;SDS011;19136;47.032;15.502;2023-09-19T02:43:03;8.35;;;4.82;;
32780;SDS011;19136;47.032;15.502;2023-09-19T02:45:30;11.88;;;5.15;;
32780;SDS011;19136;47.032;15.502;2023-09-19T02:47:59;12.32;;;3.60;;
32780;SDS011;19136;47.032;15.502;2023-09-19T02:50:25;10.90;;;3.28;;
32780;SDS011;19136;47.032;15.502;2023-09-19T02:52:51;7.50;;;3.30;;
32780;SDS011;19136;47.032;15.502;2023-09-19T02:55:17;7.00;;;3.40;;
32780;SDS011;19136;47.032;15.502;2023-09-19T02:57:51;7.22;;;2.80;;
32780;SDS011;19136;47.032;15.502;2023-09-19T03:00:19;5.50;;;3.30;;
32780;SDS011;19136;47.032;15.502;2023-09-19T03:02:48;5.07;;;2.53;;
32780;SDS011;19136;47.032;15.502;2023-09-19T03:05:14;7.60;;;2.50;;
32780;SDS011;19136;47.032;15.502;2023-09-19T03:07:40;4.55;;;1.98;;
32780;SDS011;19136;47.032;15.502;2023-09-19T03:10:08;10.70;;;2.08;;
32780;SDS011;19136;47.032;15.502;2023-09-19T03:12:35;3.35;;;2.03;;
32780;SDS011;19136;47.032;15.502;2023-09-19T03:15:03;6.22;;;2.00;;
32780;SDS011;19136;47.032;15.502;2023-09-19T03:17:30;5.15;;;1.90;;
32780;SDS011;19136;47.032;15.502;2023-09-19T03:19:56;5.28;;;1.92;;
32780;SDS011;19136;47.032;15.502;2023-09-19T03:22:22;6.93;;;1.98;;
32780;SDS011;19136;47.032;15.502;2023-09-19T03:24:49;5.20;;;1.92;;
32780;SDS011;19136;47.032;15.502;2023-09-19T03:27:15;6.03;;;1.70;;
32780;SDS011;19136;47.032;15.502;2023-09-19T03:29:41;4.53;;;1.40;;
32780;SDS011;19136;47.032;15.502;2023-09-19T03:32:08;4.68;;;1.65;;
32780;SDS011;19136;47.032;15.502;2023-09-19T03:34:37;8.55;;;1.67;;
32780;SDS011;19136;47.032;15.502;2023-09-19T03:37:08;3.90;;;1.40;;
32780;SDS011;19136;47.032;15.502;2023-09-19T03:39:34;4.88;;;1.45;;
32780;SDS011;19136;47.032;15.502;2023-09-19T03:42:00;4.68;;;1.48;;
32780;SDS011;19136;47.032;15.502;2023-09-19T03:44:26;5.80;;;1.83;;
32780;SDS011;19136;47.032;15.502;2023-09-19T03:46:51;5.22;;;1.77;;
32780;SDS011;19136;47.032;15.502;2023-09-19T03:49:17;7.13;;;1.60;;
32780;SDS011;19136;47.032;15.502;2023-09-19T03:51:43;3.97;;;1.80;;
32780;SDS011;19136;47.032;15.502;2023-09-19T03:54:08;8.50;;;1.60;;
32780;SDS011;19136;47.032;15.502;2023-09-19T03:56:34;4.30;;;1.40;;
32780;SDS011;19136;47.032;15.502;2023-09-19T03:58:59;5.20;;;1.85;;
32780;SDS011;19136;47.032;15.502;2023-09-19T04:01:25;8.90;;;1.95;;
32780;SDS011;19136;47.032;15.502;2023-09-19T04:03:53;8.02;;;1.42;;
32780;SDS011;19136;47.032;15.502;2023-09-19T04:06:18;4.07;;;1.60;;
32780;SDS011;19136;47.032;15.502;2023-09-19T04:08:44;4.85;;;1.70;;
32780;SDS011;19136;47.032;15.502;2023-09-19T04:11:11;6.53;;;1.60;;
32780;SDS011;19136;47.032;15.502;2023-09-19T04:13:36;4.97;;;1.50;;
32780;SDS011;19136;47.032;15.502;2023-09-19T04:16:02;4.28;;;1.50;;
32780;SDS011;19136;47.032;15.502;2023-09-19T04:18:29;2.42;;;1.60;;
32780;SDS011;19136;47.032;15.502;2023-09-19T04:20:58;6.63;;;1.92;;
32780;SDS011;19136;47.032;15.502;2023-09-19T04:23:27;8.50;;;1.92;;
32780;SDS011;19136;47.032;15.502;2023-09-19T04:25:53;7.93;;;2.53;;
32780;SDS011;19136;47.032;15.502;2023-09-19T04:28:18;17.20;;;2.65;;
32780;SDS011;19136;47.032;15.502;2023-09-19T04:30:44;5.30;;;2.00;;
32780;SDS011;19136;47.032;15.502;2023-09-19T04:33:09;9.27;;;2.15;;
32780;SDS011;19136;47.032;15.502;2023-09-19T04:35:35;7.45;;;1.98;;
32780;SDS011;19136;47.032;15.502;2023-09-19T04:38:03;7.22;;;2.05;;
32780;SDS011;19136;47.032;15.502;2023-09-19T04:40:28;10.48;;;1.90;;
32780;SDS011;19136;47.032;15.502;2023-09-19T04:42:58;4.45;;;1.75;;
32780;SDS011;19136;47.032;15.502;2023-09-19T04:45:23;5.88;;;1.98;;
32780;SDS011;19136;47.032;15.502;2023-09-19T04:47:49;8.70;;;2.03;;
32780;SDS011;19136;47.032;15.502;2023-09-19T04:50:14;9.43;;;1.70;;
32780;SDS011;19136;47.032;15.502;2023-09-19T04:52:40;5.82;;;1.85;;
32780;SDS011;19136;47.032;15.502;2023-09-19T04:55:08;9.75;;;2.20;;
32780;SDS011;19136;47.032;15.502;2023-09-19T04:57:34;9.45;;;1.95;;
32780;SDS011;19136;47.032;15.502;2023-09-19T04:59:59;6.57;;;2.35;;
32780;SDS011;19136;47.032;15.502;2023-09-19T05:02:25;11.63;;;2.30;;
32780;SDS011;19136;47.032;15.502;2023-09-19T05:04:56;15.25;;;2.80;;
32780;SDS011;19136;47.032;15.502;2023-09-19T05:07:24;8.00;;;2.28;;
32780;SDS011;19136;47.032;15.502;2023-09-19T05:09:51;10.20;;;2.42;;
32780;SDS011;19136;47.032;15.502;2023-09-19T05:12:16;9.52;;;2.35;;
32780;SDS011;19136;47.032;15.502;2023-09-19T05:14:45;14.50;;;2.88;;
32780;SDS011;19136;47.032;15.502;2023-09-19T05:17:10;13.30;;;4.30;;
32780;SDS011;19136;47.032;15.502;2023-09-19T05:19:35;13.65;;;3.55;;
32780;SDS011;19136;47.032;15.502;2023-09-19T05:22:02;10.43;;;2.80;;
32780;SDS011;19136;47.032;15.502;2023-09-19T05:24:29;9.57;;;2.83;;
32780;SDS011;19136;47.032;15.502;2023-09-19T05:26:56;8.57;;;2.72;;
32780;SDS011;19136;47.032;15.502;2023-09-19T05:29:22;10.20;;;2.63;;
32780;SDS011;19136;47.032;15.502;2023-09-19T05:31:48;13.15;;;2.78;;
32780;SDS011;19136;47.032;15.502;2023-09-19T05:34:15;14.60;;;2.90;;
32780;SDS011;19136;47.032;15.502;2023-09-19T05:36:40;8.90;;;2.88;;
32780;SDS011;19136;47.032;15.502;2023-09-19T05:39:06;12.65;;;3.88;;
32780;SDS011;19136;47.032;15.502;2023-09-19T05:41:35;8.05;;;3.08;;
32780;SDS011;19136;47.032;15.502;2023-09-19T05:44:02;7.25;;;2.90;;
32780;SDS011;19136;47.032;15.502;2023-09-19T05:46:28;7.75;;;3.10;;
32780;SDS011;19136;47.032;15.502;2023-09-19T05:48:55;6.65;;;2.85;;
32780;SDS011;19136;47.032;15.502;2023-09-19T05:51:22;7.25;;;2.85;;
32780;SDS011;19136;47.032;15.502;2023-09-19T05:53:48;9.35;;;3.00;;
32780;SDS011;19136;47.032;15.502;2023-09-19T05:56:14;14.18;;;3.15;;
32780;SDS011;19136;47.032;15.502;2023-09-19T05:58:40;12.57;;;4.53;;
32780;SDS011;19136;47.032;15.502;2023-09-19T06:01:08;15.30;;;3.72;;
32780;SDS011;19136;47.032;15.502;2023-09-19T06:03:34;14.32;;;3.60;;
32780;SDS011;19136;47.032;15.502;2023-09-19T06:06:01;11.52;;;3.05;;
32780;SDS011;19136;47.032;15.502;2023-09-19T06:08:27;11.15;;;3.50;;
32780;SDS011;19136;47.032;15.502;2023-09-19T06:10:53;12.45;;;4.05;;
32780;SDS011;19136;47.032;15.502;2023-09-19T06:13:19;10.40;;;4.22;;
32780;SDS011;19136;47.032;15.502;2023-09-19T06:15:45;13.35;;;3.92;;
32780;SDS011;19136;47.032;15.502;2023-09-19T06:18:12;11.25;;;4.03;;
32780;SDS011;19136;47.032;15.502;2023-09-19T06:20:42;11.82;;;4.25;;
32780;SDS011;19136;47.032;15.502;2023-09-19T06:23:10;8.48;;;4.63;;
32780;SDS011;19136;47.032;15.502;2023-09-19T06:25:35;12.23;;;5.00;;
32780;SDS011;19136;47.032;15.502;2023-09-19T06:28:00;14.90;;;5.32;;
32780;SDS011;19136;47.032;15.502;2023-09-19T06:30:30;10.82;;;4.80;;
32780;SDS011;19136;47.032;15.502;2023-09-19T06:32:56;19.30;;;5.57;;
32780;SDS011;19136;47.032;15.502;2023-09-19T06:35:22;13.70;;;5.18;;
32780;SDS011;19136;47.032;15.502;2023-09-19T06:37:48;9.13;;;5.60;;
32780;SDS011;19136;47.032;15.502;2023-09-19T06:40:14;10.48;;;5.53;;
32780;SDS011;19136;47.032;15.502;2023-09-19T06:42:44;14.27;;;5.45;;
32780;SDS011;19136;47.032;15.502;2023-09-19T06:45:11;15.25;;;5.70;;
32780;SDS011;19136;47.032;15.502;2023-09-19T06:47:38;11.05;;;5.75;;
32780;SDS011;19136;47.032;15.502;2023-09-19T06:50:05;10.15;;;5.45;;
32780;SDS011;19136;47.032;15.502;2023-09-19T06:52:31;13.68;;;5.70;;
32780;SDS011;19136;47.032;15.502;2023-09-19T06:54:58;9.57;;;5.32;;
32780;SDS011;19136;47.032;15.502;2023-09-19T06:57:24;10.52;;;5.05;;
32780;SDS011;19136;47.032;15.502;2023-09-19T06:59:49;11.35;;;5.70;;
32780;SDS011;19136;47.032;15.502;2023-09-19T07:02:15;13.63;;;5.13;;
32780;SDS011;19136;47.032;15.502;2023-09-19T07:04:41;15.35;;;4.90;;
32780;SDS011;19136;47.032;15.502;2023-09-19T07:07:06;13.88;;;5.60;;
32780;SDS011;19136;47.032;15.502;2023-09-19T07:09:34;11.30;;;5.60;;
32780;SDS011;19136;47.032;15.502;2023-09-19T07:12:00;13.85;;;4.95;;
32780;SDS011;19136;47.032;15.502;2023-09-19T07:14:26;14.98;;;4.88;;
32780;SDS011;19136;47.032;15.502;2023-09-19T07:16:52;13.60;;;4.82;;
32780;SDS011;19136;47.032;15.502;2023-09-19T07:19:17;9.45;;;3.70;;
32780;SDS011;19136;47.032;15.502;2023-09-19T07:21:43;9.30;;;3.65;;
32780;SDS011;19136;47.032;15.502;2023-09-19T07:24:08;9.02;;;3.47;;
32780;SDS011;19136;47.032;15.502;2023-09-19T07:26:34;6.78;;;2.75;;
32780;SDS011;19136;47.032;15.502;2023-09-19T07:29:00;9.02;;;3.03;;
32780;SDS011;19136;47.032;15.502;2023-09-19T07:31:28;5.40;;;2.70;;
32780;SDS011;19136;47.032;15.502;2023-09-19T07:33:54;9.63;;;3.58;;
32780;SDS011;19136;47.032;15.502;2023-09-19T07:36:19;7.00;;;3.33;;
32780;SDS011;19136;47.032;15.502;2023-09-19T07:38:45;6.10;;;2.38;;
32780;SDS011;19136;47.032;15.502;2023-09-19T07:41:10;8.32;;;2.80;;
32780;SDS011;19136;47.032;15.502;2023-09-19T07:43:36;9.40;;;3.88;;
32780;SDS011;19136;47.032;15.502;2023-09-19T07:46:07;11.15;;;3.53;;
32780;SDS011;19136;47.032;15.502;2023-09-19T07:48:37;11.05;;;3.90;;
32780;SDS011;19136;47.032;15.502;2023-09-19T07:51:07;13.02;;;4.18;;
32780;SDS011;19136;47.032;15.502;2023-09-19T07:53:34;11.10;;;4.55;;
32780;SDS011;19136;47.032;15.502;2023-09-19T07:56:03;7.40;;;4.53;;
32780;SDS011;19136;47.032;15.502;2023-09-19T07:58:29;16.73;;;6.45;;
32780;SDS011;19136;47.032;15.502;2023-09-19T08:00:54;11.82;;;6.57;;
32780;SDS011;19136;47.032;15.502;2023-09-19T08:03:20;12.38;;;5.55;;
32780;SDS011;19136;47.032;15.502;2023-09-19T08:05:46;14.38;;;4.95;;
32780;SDS011;19136;47.032;15.502;2023-09-19T08:08:13;7.72;;;4.43;;
32780;SDS011;19136;47.032;15.502;2023-09-19T08:10:40;7.30;;;3.30;;
32780;SDS011;19136;47.032;15.502;2023-09-19T08:13:07;11.90;;;3.85;;
32780;SDS011;19136;47.032;15.502;2023-09-19T08:15:36;5.68;;;3.13;;
32780;SDS011;19136;47.032;15.502;2023-09-19T08:18:09;7.25;;;2.72;;
32780;SDS011;19136;47.032;15.502;2023-09-19T08:20:35;6.57;;;2.63;;
32780;SDS011;19136;47.032;15.502;2023-09-19T08:23:03;5.90;;;3.00;;
32780;SDS011;19136;47.032;15.502;2023-09-19T08:25:29;6.28;;;2.60;;
32780;SDS011;19136;47.032;15.502;2023-09-19T08:27:54;7.90;;;2.95;;
32780;SDS011;19136;47.032;15.502;2023-09-19T08:30:23;7.82;;;2.97;;
32780;SDS011;19136;47.032;15.502;2023-09-19T08:33:10;9.93;;;3.83;;
32780;SDS011;19136;47.032;15.502;2023-09-19T08:35:35;16.80;;;5.80;;
32780;SDS011;19136;47.032;15.502;2023-09-19T08:38:01;12.43;;;5.35;;
32780;SDS011;19136;47.032;15.502;2023-09-19T08:40:32;29.70;;;6.35;;
32780;SDS011;19136;47.032;15.502;2023-09-19T08:43:08;8.55;;;4.07;;
32780;SDS011;19136;47.032;15.502;2023-09-19T08:45:35;10.07;;;3.83;;
32780;SDS011;19136;47.032;15.502;2023-09-19T08:50:28;5.82;;;2.80;;
32780;SDS011;19136;47.032;15.502;2023-09-19T08:53:00;10.10;;;4.57;;
32780;SDS011;19136;47.032;15.502;2023-09-19T08:55:29;8.20;;;4.13;;
32780;SDS011;19136;47.032;15.502;2023-09-19T08:58:02;5.78;;;3.10;;
32780;SDS011;19136;47.032;15.502;2023-09-19T09:00:28;7.35;;;2.80;;
32780;SDS011;19136;47.032;15.502;2023-09-19T09:02:56;7.22;;;2.92;;
32780;SDS011;19136;47.032;15.502;2023-09-19T09:05:22;7.22;;;2.58;;
32780;SDS011;19136;47.032;15.502;2023-09-19T09:07:51;6.90;;;2.00;;
32780;SDS011;19136;47.032;15.502;2023-09-19T09:10:23;4.65;;;1.95;;
32780;SDS011;19136;47.032;15.502;2023-09-19T09:12:51;7.47;;;1.70;;
32780;SDS011;19136;47.032;15.502;2023-09-19T09:15:17;10.85;;;2.78;;
32780;SDS011;19136;47.032;15.502;2023-09-19T09:17:46;10.07;;;3.58;;
32780;SDS011;19136;47.032;15.502;2023-09-19T09:20:13;11.32;;;3.22;;
32780;SDS011;19136;47.032;15.502;2023-09-19T09:22:38;11.60;;;3.70;;
32780;SDS011;19136;47.032;15.502;2023-09-19T09:25:09;9.15;;;2.85;;
32780;SDS011;19136;47.032;15.502;2023-09-19T09:27:35;6.72;;;2.08;;
32780;SDS011;19136;47.032;15.502;2023-09-19T09:30:00;5.78;;;2.05;;
32780;SDS011;19136;47.032;15.502;2023-09-19T09:32:27;9.32;;;2.22;;
32780;SDS011;19136;47.032;15.502;2023-09-19T09:37:19;5.32;;;2.20;;
32780;SDS011;19136;47.032;15.502;2023-09-19T09:39:58;6.28;;;3.08;;
32780;SDS011;19136;47.032;15.502;2023-09-19T09:42:44;7.80;;;1.92;;
32780;SDS011;19136;47.032;15.502;2023-09-19T09:45:21;3.00;;;1.60;;
32780;SDS011;19136;47.032;15.502;2023-09-19T09:47:59;7.20;;;1.80;;
32780;SDS011;19136;47.032;15.502;2023-09-19T09:50:35;3.40;;;1.35;;
32780;SDS011;19136;47.032;15.502;2023-09-19T09:53:24;3.03;;;1.88;;
32780;SDS011;19136;47.032;15.502;2023-09-19T09:58:26;3.88;;;1.55;;
32780;SDS011;19136;47.032;15.502;2023-09-19T10:00:55;3.60;;;1.85;;
32780;SDS011;19136;47.032;15.502;2023-09-19T10:03:38;5.32;;;1.95;;
32780;SDS011;19136;47.032;15.502;2023-09-19T10:06:13;4.13;;;1.75;;
32780;SDS011;19136;47.032;15.502;2023-09-19T10:08:58;4.03;;;1.50;;
32780;SDS011;19136;47.032;15.502;2023-09-19T10:11:30;4.35;;;1.33;;
32780;SDS011;19136;47.032;15.502;2023-09-19T10:13:56;6.05;;;1.23;;
32780;SDS011;19136;47.032;15.502;2023-09-19T10:16:22;8.38;;;1.50;;
32780;SDS011;19136;47.032;15.502;2023-09-19T10:18:50;2.97;;;1.40;;
32780;SDS011;19136;47.032;15.502;2023-09-19T10:21:17;1.63;;;0.60;;
32780;SDS011;19136;47.032;15.502;2023-09-19T10:23:48;1.77;;;0.80;;
32780;SDS011;19136;47.032;15.502;2023-09-19T10:26:16;3.97;;;1.23;;
32780;SDS011;19136;47.032;15.502;2023-09-19T10:28:42;4.68;;;1.13;;
32780;SDS011;19136;47.032;15.502;2023-09-19T10:31:09;3.78;;;0.98;;
32780;SDS011;19136;47.032;15.502;2023-09-19T10:33:39;2.95;;;1.00;;
32780;SDS011;19136;47.032;15.502;2023-09-19T10:36:06;2.78;;;1.27;;
32780;SDS011;19136;47.032;15.502;2023-09-19T10:38:33;2.53;;;0.90;;
32780;SDS011;19136;47.032;15.502;2023-09-19T10:41:00;1.90;;;0.90;;
32780;SDS011;19136;47.032;15.502;2023-09-19T10:43:32;2.88;;;1.15;;
32780;SDS011;19136;47.032;15.502;2023-09-19T10:46:02;2.80;;;1.10;;
32780;SDS011;19136;47.032;15.502;2023-09-19T10:48:31;1.98;;;0.98;;
32780;SDS011;19136;47.032;15.502;2023-09-19T10:53:24;2.92;;;1.15;;
32780;SDS011;19136;47.032;15.502;2023-09-19T10:55:52;2.63;;;1.00;;
32780;SDS011;19136;47.032;15.502;2023-09-19T10:58:25;2.67;;;1.00;;
32780;SDS011;19136;47.032;15.502;2023-09-19T11:00:55;2.72;;;1.23;;
32780;SDS011;19136;47.032;15.502;2023-09-19T11:03:21;4.63;;;1.20;;
32780;SDS011;19136;47.032;15.502;2023-09-19T11:08:51;5.38;;;1.05;;
32780;SDS011;19136;47.032;15.502;2023-09-19T11:22:14;1.48;;;0.82;;
32780;SDS011;19136;47.032;15.502;2023-09-19T11:24:39;2.45;;;1.20;;
32780;SDS011;19136;47.032;15.502;2023-09-19T11:27:09;2.22;;;1.40;;
32780;SDS011;19136;47.032;15.502;2023-09-19T11:29:36;3.45;;;1.60;;
32780;SDS011;19136;47.032;15.502;2023-09-19T11:32:03;3.33;;;1.30;;
32780;SDS011;19136;47.032;15.502;2023-09-19T11:37:17;7.03;;;1.33;;
32780;SDS011;19136;47.032;15.502;2023-09-19T11:40:10;5.50;;;1.17;;
32780;SDS011;19136;47.032;15.502;2023-09-19T11:42:42;1.85;;;1.00;;
32780;SDS011;19136;47.032;15.502;2023-09-19T11:47:59;3.80;;;1.15;;
32780;SDS011;19136;47.032;15.502;2023-09-19T11:50:25;4.68;;;1.05;;
32780;SDS011;19136;47.032;15.502;2023-09-19T11:52:52;2.13;;;1.10;;
32780;SDS011;19136;47.032;15.502;2023-09-19T11:55:20;2.95;;;1.00;;
32780;SDS011;19136;47.032;15.502;2023-09-19T11:57:48;2.35;;;1.30;;
32780;SDS011;19136;47.032;15.502;2023-09-19T12:00:19;3.80;;;1.35;;
32780;SDS011;19136;47.032;15.502;2023-09-19T12:02:47;2.70;;;1.17;;
32780;SDS011;19136;47.032;15.502;2023-09-19T12:05:12;4.30;;;1.20;;
32780;SDS011;19136;47.032;15.502;2023-09-19T12:07:44;3.72;;;1.17;;
32780;SDS011;19136;47.032;15.502;2023-09-19T12:10:13;4.95;;;1.52;;
32780;SDS011;19136;47.032;15.502;2023-09-19T12:12:46;3.45;;;1.38;;
32780;SDS011;19136;47.032;15.502;2023-09-19T12:15:12;1.77;;;0.93;;
32780;SDS011;19136;47.032;15.502;2023-09-19T12:17:38;2.67;;;1.20;;
32780;SDS011;19136;47.032;15.502;2023-09-19T12:20:06;2.55;;;1.13;;
32780;SDS011;19136;47.032;15.502;2023-09-19T12:22:45;2.15;;;1.27;;
32780;SDS011;19136;47.032;15.502;2023-09-19T12:25:12;4.88;;;1.00;;
32780;SDS011;19136;47.032;15.502;2023-09-19T12:27:41;5.22;;;1.48;;
32780;SDS011;19136;47.032;15.502;2023-09-19T12:30:09;4.45;;;1.88;;
32780;SDS011;19136;47.032;15.502;2023-09-19T12:32:35;1.60;;;1.02;;
32780;SDS011;19136;47.032;15.502;2023-09-19T12:35:08;2.17;;;1.00;;
32780;SDS011;19136;47.032;15.502;2023-09-19T12:37:51;4.50;;;1.35;;
32780;SDS011;19136;47.032;15.502;2023-09-19T12:40:18;5.68;;;2.65;;
32780;SDS011;19136;47.032;15.502;2023-09-19T12:42:48;2.80;;;0.95;;
32780;SDS011;19136;47.032;15.502;2023-09-19T12:45:14;2.10;;;1.10;;
32780;SDS011;19136;47.032;15.502;2023-09-19T12:47:40;3.05;;;1.08;;
32780;SDS011;19136;47.032;15.502;2023-09-19T12:50:26;3.33;;;1.02;;
32780;SDS011;19136;47.032;15.502;2023-09-19T12:52:55;1.85;;;1.00;;
32780;SDS011;19136;47.032;15.502;2023-09-19T12:55:22;4.38;;;1.25;;
32780;SDS011;19136;47.032;15.502;2023-09-19T13:00:33;1.85;;;1.20;;
32780;SDS011;19136;47.032;15.502;2023-09-19T13:05:57;2.58;;;1.23;;
32780;SDS011;19136;47.032;15.502;2023-09-19T13:08:25;2.95;;;1.30;;
32780;SDS011;19136;47.032;15.502;2023-09-19T13:11:09;2.30;;;1.02;;
32780;SDS011;19136;47.032;15.502;2023-09-19T13:16:27;1.90;;;1.20;;
32780;SDS011;19136;47.032;15.502;2023-09-19T13:18:53;3.58;;;1.20;;
32780;SDS011;19136;47.032;15.502;2023-09-19T13:21:28;4.40;;;1.48;;
32780;SDS011;19136;47.032;15.502;2023-09-19T13:23:54;4.93;;;1.05;;
32780;SDS011;19136;47.032;15.502;2023-09-19T13:26:27;1.98;;;1.15;;
32780;SDS011;19136;47.032;15.502;2023-09-19T13:28:54;4.22;;;1.20;;
32780;SDS011;19136;47.032;15.502;2023-09-19T13:31:19;3.50;;;1.67;;
32780;SDS011;19136;47.032;15.502;2023-09-19T13:33:48;2.45;;;1.45;;
32780;SDS011;19136;47.032;15.502;2023-09-19T13:36:14;5.10;;;1.75;;
32780;SDS011;19136;47.032;15.502;2023-09-19T13:38:40;8.32;;;1.60;;
32780;SDS011;19136;47.032;15.502;2023-09-19T13:41:08;13.05;;;1.67;;
32780;SDS011;19136;47.032;15.502;2023-09-19T13:43:35;6.82;;;1.70;;
32780;SDS011;19136;47.032;15.502;2023-09-19T13:46:01;7.25;;;1.92;;
32780;SDS011;19136;47.032;15.502;2023-09-19T13:48:27;6.28;;;1.73;;
32780;SDS011;19136;47.032;15.502;2023-09-19T13:50:55;4.13;;;1.20;;
32780;SDS011;19136;47.032;15.502;2023-09-19T13:53:21;6.43;;;1.42;;
32780;SDS011;19136;47.032;15.502;2023-09-19T13:55:46;5.80;;;1.38;;
32780;SDS011;19136;47.032;15.502;2023-09-19T13:58:14;7.20;;;1.30;;
32780;SDS011;19136;47.032;15.502;2023-09-19T14:00:42;6.32;;;1.42;;
32780;SDS011;19136;47.032;15.502;2023-09-19T14:03:08;6.28;;;1.45;;
32780;SDS011;19136;47.032;15.502;2023-09-19T14:05:33;2.78;;;1.38;;
32780;SDS011;19136;47.032;15.502;2023-09-19T14:07:59;4.05;;;1.40;;
32780;SDS011;19136;47.032;15.502;2023-09-19T14:10:25;3.45;;;1.30;;
32780;SDS011;19136;47.032;15.502;2023-09-19T14:12:55;6.15;;;1.35;;
32780;SDS011;19136;47.032;15.502;2023-09-19T14:15:21;3.55;;;1.25;;
32780;SDS011;19136;47.032;15.502;2023-09-19T14:17:55;3.05;;;1.40;;
32780;SDS011;19136;47.032;15.502;2023-09-19T14:20:21;2.85;;;1.08;;
32780;SDS011;19136;47.032;15.502;2023-09-19T14:22:47;4.25;;;1.27;;
32780;SDS011;19136;47.032;15.502;2023-09-19T14:25:13;3.08;;;1.35;;
32780;SDS011;19136;47.032;15.502;2023-09-19T14:27:39;3.17;;;1.00;;
32780;SDS011;19136;47.032;15.502;2023-09-19T14:30:05;3.90;;;1.63;;
32780;SDS011;19136;47.032;15.502;2023-09-19T14:32:30;2.00;;;0.98;;
32780;SDS011;19136;47.032;15.502;2023-09-19T14:34:56;2.70;;;1.05;;
32780;SDS011;19136;47.032;15.502;2023-09-19T14:37:21;4.55;;;1.10;;
32780;SDS011;19136;47.032;15.502;2023-09-19T14:39:47;3.28;;;1.10;;
32780;SDS011;19136;47.032;15.502;2023-09-19T14:42:13;10.38;;;1.38;;
32780;SDS011;19136;47.032;15.502;2023-09-19T14:44:43;4.05;;;1.60;;
32780;SDS011;19136;47.032;15.502;2023-09-19T14:47:08;7.45;;;2.40;;
32780;SDS011;19136;47.032;15.502;2023-09-19T14:49:34;3.63;;;1.40;;
32780;SDS011;19136;47.032;15.502;2023-09-19T14:52:00;4.28;;;1.50;;
32780;SDS011;19136;47.032;15.502;2023-09-19T14:54:29;6.63;;;1.50;;
32780;SDS011;19136;47.032;15.502;2023-09-19T14:56:55;2.55;;;1.20;;
32780;SDS011;19136;47.032;15.502;2023-09-19T14:59:32;4.90;;;1.10;;
32780;SDS011;19136;47.032;15.502;2023-09-19T15:01:58;3.35;;;1.60;;
32780;SDS011;19136;47.032;15.502;2023-09-19T15:04:24;3.65;;;1.67;;
32780;SDS011;19136;47.032;15.502;2023-09-19T15:06:50;2.70;;;1.23;;
32780;SDS011;19136;47.032;15.502;2023-09-19T15:09:23;2.00;;;1.20;;
32780;SDS011;19136;47.032;15.502;2023-09-19T15:11:52;7.20;;;1.55;;
32780;SDS011;19136;47.032;15.502;2023-09-19T15:14:19;5.35;;;2.13;;
32780;SDS011;19136;47.032;15.502;2023-09-19T15:16:45;4.43;;;2.13;;
32780;SDS011;19136;47.032;15.502;2023-09-19T15:19:10;7.13;;;2.17;;
32780;SDS011;19136;47.032;15.502;2023-09-19T15:21:36;3.28;;;1.70;;
32780;SDS011;19136;47.032;15.502;2023-09-19T15:24:05;2.60;;;1.50;;
32780;SDS011;19136;47.032;15.502;2023-09-19T15:26:34;3.25;;;1.20;;
32780;SDS011;19136;47.032;15.502;2023-09-19T15:29:05;4.43;;;1.50;;
32780;SDS011;19136;47.032;15.502;2023-09-19T15:31:31;4.13;;;1.40;;